createdAt,value
2024-01-20T00:02:19.762Z,66.17
2024-01-20T00:12:22.769Z,66.80
2024-01-20T00:22:27.104Z,66.91
2024-01-20T00:32:30.462Z,67.20
2024-01-20T00:42:35.146Z,67.17
2024-01-20T00:52:38.410Z,66.71
2024-01-20T01:02:43.115Z,67.05
2024-01-20T01:12:46.122Z,67.06
2024-01-20T01:22:52.321Z,66.94
2024-01-20T01:32:55.258Z,66.96
2024-01-20T01:42:59.521Z,66.83
2024-01-20T01:53:02.525Z,66.89
2024-01-20T02:03:07.039Z,66.42
2024-01-20T02:13:10.358Z,66.33
2024-01-20T02:23:14.610Z,66.38
2024-01-20T02:33:17.886Z,66.61
2024-01-20T02:43:22.314Z,66.66
2024-01-20T02:53:26.784Z,66.96
2024-01-20T03:03:31.272Z,66.63
2024-01-20T03:13:34.250Z,66.53
2024-01-20T03:23:38.538Z,66.90
2024-01-20T03:33:41.580Z,66.75
2024-01-20T03:43:45.993Z,66.52
2024-01-20T03:53:48.958Z,66.29
2024-01-20T04:03:53.436Z,65.31
2024-01-20T04:13:56.364Z,65.65
2024-01-20T04:24:00.740Z,66.53
2024-01-20T04:34:03.752Z,66.33
2024-01-20T04:44:08.248Z,66.48
2024-01-20T04:54:11.203Z,66.40
2024-01-20T05:04:15.596Z,66.68
2024-01-20T05:14:18.499Z,66.77
2024-01-20T05:24:22.725Z,66.56
2024-01-20T05:34:25.715Z,66.20
2024-01-20T05:44:30.554Z,66.76
2024-01-20T05:54:33.529Z,67.74
2024-01-20T06:04:37.806Z,68.07
2024-01-20T06:14:41.484Z,67.67
2024-01-20T06:24:45.780Z,68.26
2024-01-20T06:34:48.732Z,68.27
2024-01-20T06:44:53.045Z,68.30
2024-01-20T06:54:55.986Z,68.18
2024-01-20T07:05:01.705Z,68.97
2024-01-20T07:15:07.302Z,69.18
2024-01-20T07:25:12.077Z,69.14
2024-01-20T07:35:15.740Z,69.30
2024-01-20T07:45:20.115Z,69.38
2024-01-20T07:55:23.077Z,69.18
2024-01-20T08:05:27.372Z,69.59
2024-01-20T08:15:30.310Z,69.44
2024-01-20T08:25:34.740Z,69.90
2024-01-20T08:35:37.648Z,69.54
2024-01-20T08:45:42.107Z,69.57
2024-01-20T08:55:45.732Z,69.69
2024-01-20T09:05:50.086Z,69.55
2024-01-20T09:15:53.219Z,68.83
2024-01-20T09:25:57.541Z,68.64
2024-01-20T09:36:00.546Z,67.98
2024-01-20T09:46:05.491Z,67.58
2024-01-20T09:56:08.569Z,66.80
2024-01-20T10:06:12.809Z,65.79
2024-01-20T10:16:15.866Z,65.14
2024-01-20T10:26:20.142Z,64.09
2024-01-20T10:36:25.923Z,64.34
2024-01-20T10:46:32.443Z,64.10
2024-01-20T10:56:37.365Z,62.63
2024-01-20T11:06:42.462Z,62.89
2024-01-20T11:16:45.501Z,62.64
2024-01-20T11:26:50.960Z,61.40
2024-01-20T11:36:55.195Z,60.20
2024-01-20T11:47:00.614Z,60.75
2024-01-20T11:57:05.568Z,59.98
2024-01-20T12:07:10.192Z,59.12
2024-01-20T12:17:13.963Z,59.00
2024-01-20T12:27:19.424Z,58.68
2024-01-20T12:37:22.353Z,57.62
2024-01-20T12:47:26.903Z,56.87
2024-01-20T12:57:29.876Z,57.17
2024-01-20T13:07:34.162Z,56.70
2024-01-20T13:17:37.176Z,56.83
2024-01-20T13:27:41.561Z,56.47
2024-01-20T13:37:44.619Z,55.48
2024-01-20T13:47:48.912Z,55.88
2024-01-20T13:57:51.958Z,54.62
2024-01-20T14:07:56.244Z,55.62
2024-01-20T14:17:59.400Z,56.02
2024-01-20T14:28:05.183Z,56.15
2024-01-20T14:38:08.160Z,56.75
2024-01-20T14:48:13.439Z,57.77
2024-01-20T14:58:16.480Z,58.97
2024-01-20T15:08:20.770Z,58.75
2024-01-20T15:18:23.949Z,59.67
2024-01-20T15:28:28.931Z,60.01
2024-01-20T15:38:31.809Z,60.03
2024-01-20T15:48:43.445Z,59.75
2024-01-20T15:58:47.120Z,60.76
2024-01-20T16:08:53.047Z,60.73
2024-01-20T16:18:56.755Z,61.13
2024-01-20T16:29:01.224Z,61.83
2024-01-20T16:39:05.483Z,62.07
2024-01-20T16:49:10.036Z,62.16
2024-01-20T16:59:13.095Z,62.77
2024-01-20T17:09:17.718Z,63.57
2024-01-20T17:19:21.263Z,64.40
2024-01-20T17:29:28.621Z,65.22
2024-01-20T17:39:36.310Z,66.96
2024-01-20T17:49:41.029Z,66.78
2024-01-20T17:59:44.023Z,67.17
2024-01-20T18:09:48.494Z,68.58
2024-01-20T18:19:51.579Z,68.34
2024-01-20T18:29:57.198Z,68.05
2024-01-20T18:40:00.245Z,67.72
2024-01-20T18:50:04.941Z,67.98
2024-01-20T19:00:08.972Z,68.28
2024-01-20T19:10:13.351Z,68.51
2024-01-20T19:20:16.350Z,69.05
2024-01-20T19:30:22.127Z,69.15
2024-01-20T19:40:25.044Z,69.36
2024-01-20T19:50:29.451Z,68.55
2024-01-20T20:00:32.932Z,68.24
2024-01-20T20:10:37.210Z,68.55
2024-01-20T20:20:40.255Z,69.98
2024-01-20T20:40:48.962Z,69.51
2024-01-20T20:50:53.444Z,70.65
2024-01-20T21:00:56.568Z,70.55
2024-01-20T21:11:00.969Z,69.45
2024-01-20T21:21:03.882Z,68.84
2024-01-20T21:31:08.968Z,68.20
2024-01-20T21:41:12.958Z,68.36
2024-01-20T21:51:17.307Z,68.91
2024-01-20T22:01:20.372Z,68.78
2024-01-20T22:11:25.038Z,68.30
2024-01-20T22:21:27.973Z,67.47
2024-01-20T22:31:33.156Z,66.14
2024-01-20T22:41:36.062Z,62.81
2024-01-20T22:51:40.405Z,64.55
2024-01-20T23:01:44.700Z,64.02
2024-01-20T23:11:48.963Z,63.00
2024-01-20T23:21:51.938Z,61.03
2024-01-20T23:31:56.215Z,60.59
2024-01-20T23:41:59.134Z,60.49
2024-01-20T23:52:03.946Z,60.89
